• Join FlightAware (Why Join?)
  • Login
  • US Flag 
12:13PM EDT


 

Airport Tracker/Info


-or-


 

Live Flight TrackerFlight Track Log ✈ AWE3418 ✈ 02-Aug-2014 ✈ KCHS - KPHL

Flight Track Log - Related Links

Times and Time Zones

All times are in EDT time to prevent confusion due to time zone crossing. See the AWE3418 flight status page for this flight to view local times or setup timezone preferences in your user account.

Time Position Orientation Groundspeed Altitude Reporting Facility
EDT Latitude Longitude Course Direction KTS MPH feet Rate Location/Type
12:46PM 33.0128 -79.9347 North 291 335 7,400  Level Jacksonville Center
12:47PM 33.0964 -79.9369 359° North 291 335 10,200 2,700 Climbing Jacksonville Center
12:48PM 33.3850 -79.8797 North  Level FlightAware Approximate
12:48PM 33.1864 -79.9414 358° North 291 335 12,900  Level Jacksonville Center
12:49PM 33.4873 -79.8560 13° North  Level FlightAware Approximate
12:49PM 33.2778 -79.9286 North 308 354 15,400  Level Jacksonville Center
12:50PM 33.5886 -79.8271 13° North  Level FlightAware Approximate
12:50PM 33.3731 -79.9006 14° North 328 377 17,700  Level Jacksonville Center
12:51PM 33.6902 -79.8000 North  Level FlightAware Approximate
12:51PM 33.4683 -79.8675 16° North 348 400 20,000  Level Jacksonville Center
12:52PM 33.5606 -79.7994 32° Northeast 362 417 21,900 1,800 Climbing Jacksonville Center
12:53PM 33.6547 -79.7289 32° Northeast 384 442 23,700 1,500 Climbing Jacksonville Center
12:54PM 33.7511 -79.6553 32° Northeast 399 459 25,000 600 Climbing Jacksonville Center
12:55PM 33.8472 -79.5819 32° Northeast 404 465 25,000  Level Jacksonville Center
12:56PM 33.9414 -79.5083 33° Northeast 404 465 25,000 420 Level Jacksonville Center
12:57PM 34.0414 -79.4342 32° Northeast 404 465 25,900 1,080 Climbing Jacksonville Center
12:58PM 34.1233 -79.3733 32° Northeast 394 453 27,200 1,320 Climbing Jacksonville Center
01:00PM 34.2786 -79.2511 33° Northeast 414 476 29,300 1,320 Climbing Washington Center
01:01PM 34.3911 -79.1883 25° Northeast 430 495 30,600 1,140 Climbing Washington Center
01:02PM 34.5075 -79.1303 22° Northeast 441 507 31,600 900 Climbing Washington Center
01:03PM 34.6278 -79.0825 18° North 447 514 32,500 660 Climbing Washington Center
01:04PM 34.7525 -79.0297 19° North 458 527 33,000 240 Climbing Washington Center
01:05PM 34.8769 -78.9794 18° North 463 533 33,000  Level Washington Center
01:06PM 35.0039 -78.9264 19° North 469 540 33,000  Level Washington Center
01:07PM 35.1261 -78.8756 19° North 469 540 33,000  Level Washington Center
01:08PM 35.2506 -78.8247 18° North 464 534 33,000  Level Washington Center
01:09PM 35.3753 -78.7736 18° North 469 540 33,000  Level Washington Center
01:10PM 35.4997 -78.7175 20° North 469 540 33,000 -60 Level Washington Center
01:11PM 35.6261 -78.6711 17° North 469 540 32,900  Descending Washington Center
01:12PM 35.7569 -78.6122 20° North 461 531 33,100 -480 Climbing Washington Center
01:13PM 35.8794 -78.5581 20° North 461 531 32,000 -600 Descending Washington Center
01:14PM 36.0039 -78.5036 19° North 461 531 32,000  Level Washington Center
01:15PM 36.1283 -78.4492 19° North 472 543 32,000  Level Washington Center
01:16PM 36.2547 -78.3969 18° North 472 543 32,000  Level Washington Center
01:17PM 36.3833 -78.3422 19° North 472 543 32,000  Level Washington Center
01:18PM 36.5117 -78.2872 19° North 472 543 32,000  Level Washington Center
01:19PM 36.6383 -78.2297 20° North 472 543 32,000  Level Washington Center
01:20PM 36.7625 -78.1689 21° North 472 543 32,000  Level Washington Center
01:21PM 36.8931 -78.1136 19° North 477 549 32,000  Level Washington Center
01:22PM 37.0194 -78.0553 20° North 477 549 32,000  Level Washington Center
01:23PM 37.1436 -77.9994 20° North 477 549 32,000  Level Washington Center
01:24PM 37.2722 -77.9433 19° North 477 549 32,000 -360 Level Washington Center
01:25PM 37.4006 -77.8872 19° North 477 549 31,300 -1,200 Descending Washington Center
01:26PM 37.5289 -77.8231 22° Northeast 482 555 29,600 -1,200 Descending Washington Center
01:27PM 37.6411 -77.7267 34° Northeast 482 555 29,000 -360 Descending Washington Center
01:28PM 37.7536 -77.6247 36° Northeast 488 562 29,000 -360 Level Washington Center
01:29PM 37.8617 -77.5197 37° Northeast 488 562 28,400 -540 Descending Washington Center
01:30PM 37.9431 -77.3875 52° Northeast 475 547 28,000 -720 Descending Washington Center
01:31PM 38.0219 -77.2525 53° Northeast 475 547 27,000 -1,320 Descending Washington Center
01:32PM 38.0989 -77.1247 53° Northeast 467 537 25,400 -1,500 Descending Washington Center
01:33PM 38.1919 -77.0211 41° Northeast 455 524 24,000 -720 Descending Washington Center
01:34PM 38.3031 -76.9622 23° Northeast 426 490 24,000  Level Washington Center
01:35PM 38.4119 -76.9058 22° Northeast 421 484 24,000  Level Washington Center
01:36PM 38.5336 -76.8392 23° Northeast 438 504 24,000  Level Washington Center
01:37PM 38.6553 -76.7667 25° Northeast 462 532 24,000 -420 Level Washington Center
01:38PM 38.7317 -76.6294 54° Northeast 451 519 23,200 -1,020 Descending Washington Center
01:39PM 38.7642 -76.4675 76° East 444 511 22,000 -2,100 Descending Washington Center
01:40PM 38.7967 -76.3108 75° East 439 505 19,100 -2,700 Descending Washington Center
01:41PM 38.8244 -76.1644 76° East 439 505 16,800 -2,040 Descending Washington Center
01:42PM 38.8519 -76.0261 76° East 433 498 15,000 -900 Descending Washington Center
01:43PM 38.8839 -75.8850 74° East 423 487 15,000  Level Washington Center
01:44PM 38.9589 -75.7758 49° Northeast 404 465 15,000 -1,020 Level Washington Center
01:46PM 39.1500 -75.6667 24° Northeast 383 441 12,100 -1,740 Descending Philadelphia TRACON
01:47PM 39.2667 -75.6500 North 337 388 10,200 -1,800 Descending Philadelphia TRACON
01:48PM 39.3333 -75.6500 360° North 278 320 8,600 -1,620 Descending Philadelphia TRACON
01:49PM 39.4167 -75.6833 343° North 283 326 7,000 -840 Descending Philadelphia TRACON
01:50PM 39.5000 -75.7000 351° North 283 326 7,000 -120 Level Philadelphia TRACON
01:51PM 39.5667 -75.7167 349° North 221 254 6,800 -540 Descending Philadelphia TRACON
01:52PM 39.6167 -75.7333 346° North 231 266 6,000 -780 Descending Philadelphia TRACON
01:53PM 39.6833 -75.7333 360° North 189 217 5,200 -960 Descending Philadelphia TRACON
01:54PM 39.7167 -75.6833 49° Northeast 184 212 4,000 -600 Descending Philadelphia TRACON
01:55PM 39.7500 -75.6333 49° Northeast 182 209 4,000  Level Philadelphia TRACON
01:56PM 39.7833 -75.6000 38° Northeast 182 209 4,000 -60 Level Philadelphia TRACON
01:57PM 39.8167 -75.5333 57° Northeast 183 211 3,900 -480 Descending Philadelphia TRACON
01:58PM 39.8167 -75.4667 90° East 176 203 3,100 -900 Descending Philadelphia TRACON
01:59PM 39.8333 -75.4167 67° East 179 206 2,100 -960 Descending Philadelphia TRACON
02:00PM 39.8500 -75.3500 72° East 149 171 1,200 -780 Descending Philadelphia TRACON
02:01PM 39.8500 -75.3000 90° East 129 148 500 -660 Descending Philadelphia TRACON
02:03PM 39.8667 -75.2333 37° Northeast  Level FlightAware Approximate